Time;durP1;ratioP1;P1;durP2;ratioP2;P2;SDS_P1;SDS_P2;PMS_P1;PMS_P2;Temp;Humidity;BMP_temperature;BMP_pressure;BME280_temperature;BME280_humidity;BME280_pressure;Samples;Min_cycle;Max_cycle;Signal;HPM_P1;HPM_P2
2021/09/08 00:00:10;;;;;;;9.95;5.22;;;16.60;82.40;;;;;;5117385;28;20048;-48
2021/09/08 00:02:36;;;;;;;7.72;5.80;;;16.50;82.50;;;;;;5033379;28;20036;-50
2021/09/08 00:05:04;;;;;;;10.35;5.63;;;16.50;82.80;;;;;;5117577;28;20201;-49
2021/09/08 00:07:30;;;;;;;19.58;6.05;;;16.40;83.00;;;;;;5064981;28;20394;-49
2021/09/08 00:09:56;;;;;;;10.75;5.57;;;16.50;82.70;;;;;;5081657;28;20043;-49
2021/09/08 00:12:21;;;;;;;11.68;5.45;;;16.50;82.50;;;;;;5117389;28;20030;-48
2021/09/08 00:14:47;;;;;;;11.95;6.78;;;16.50;82.60;;;;;;5117338;28;20038;-49
2021/09/08 00:17:13;;;;;;;13.15;5.82;;;16.50;82.60;;;;;;5081745;28;20032;-48
2021/09/08 00:19:41;;;;;;;11.35;5.78;;;16.60;82.40;;;;;;5081762;28;20061;-51
2021/09/08 00:22:06;;;;;;;26.60;8.55;;;16.60;82.60;;;;;;5081629;28;20070;-50
2021/09/08 00:24:33;;;;;;;10.82;6.20;;;16.30;83.10;;;;;;5031618;28;20059;-50
2021/09/08 00:26:59;;;;;;;13.73;6.68;;;16.30;83.50;;;;;;5117262;28;20451;-48
2021/09/08 00:29:25;;;;;;;16.10;6.03;;;16.20;83.70;;;;;;5116845;28;20043;-51
2021/09/08 00:31:51;;;;;;;14.20;6.25;;;16.20;83.70;;;;;;5117097;28;20076;-50
2021/09/08 00:34:17;;;;;;;14.70;6.90;;;15.90;84.30;;;;;;5116834;28;20023;-48
2021/09/08 00:36:42;;;;;;;11.95;6.53;;;15.80;85.30;;;;;;5116981;28;20031;-49
2021/09/08 00:39:08;;;;;;;12.35;5.93;;;15.70;85.90;;;;;;5116696;28;20019;-51
2021/09/08 00:41:34;;;;;;;9.55;6.15;;;15.60;86.20;;;;;;5116878;28;20020;-51
2021/09/08 00:44:10;;;;;;;9.27;6.07;;;15.40;86.40;;;;;;5116863;28;20032;-49
2021/09/08 00:46:38;;;;;;;9.07;6.20;;;15.30;86.50;;;;;;5116755;28;20055;-50
2021/09/08 00:49:05;;;;;;;9.32;6.18;;;15.00;87.90;;;;;;5116820;28;20031;-49
2021/09/08 00:51:32;;;;;;;10.60;6.43;;;14.60;89.30;;;;;;5115872;28;20055;-48
2021/09/08 00:53:59;;;;;;;10.85;5.75;;;14.40;90.20;;;;;;5116944;28;20102;-50
2021/09/08 00:56:28;;;;;;;8.93;6.22;;;14.30;90.40;;;;;;5080952;28;20036;-51
2021/09/08 00:58:54;;;;;;;11.48;6.15;;;14.50;90.30;;;;;;5117058;28;20028;-49
2021/09/08 01:01:20;;;;;;;10.20;6.13;;;14.60;90.10;;;;;;5116118;28;20089;-48
2021/09/08 01:03:49;;;;;;;9.82;5.55;;;14.60;89.90;;;;;;5097693;28;20032;-49
2021/09/08 01:06:15;;;;;;;11.30;6.57;;;14.70;90.00;;;;;;5116194;28;20114;-49
2021/09/08 01:08:42;;;;;;;9.20;6.60;;;15.00;89.50;;;;;;5116333;28;20075;-49
2021/09/08 01:11:08;;;;;;;10.10;5.82;;;15.20;88.50;;;;;;5116475;28;20078;-48
2021/09/08 01:13:34;;;;;;;7.30;5.60;;;15.40;87.60;;;;;;5116313;28;20479;-49
2021/09/08 01:16:01;;;;;;;13.80;6.32;;;15.50;87.50;;;;;;5030441;28;20043;-49
2021/09/08 01:18:28;;;;;;;10.32;5.85;;;15.50;87.30;;;;;;5115934;28;20030;-50
2021/09/08 01:20:54;;;;;;;15.43;7.20;;;15.60;87.00;;;;;;5116111;28;20080;-48
2021/09/08 01:23:20;;;;;;;17.55;7.90;;;15.50;87.40;;;;;;5116236;28;20034;-48
2021/09/08 01:25:46;;;;;;;12.18;6.07;;;15.50;87.20;;;;;;5116149;28;20035;-49
2021/09/08 01:28:12;;;;;;;12.60;6.30;;;15.40;86.90;;;;;;5115801;28;20050;-51
2021/09/08 01:30:41;;;;;;;8.35;5.93;;;15.40;87.40;;;;;;5080099;28;20032;-48
2021/09/08 01:33:12;;;;;;;11.30;6.10;;;15.30;87.60;;;;;;5115943;28;20031;-50
2021/09/08 01:35:39;;;;;;;9.15;5.43;;;15.40;87.70;;;;;;5097455;28;20044;-50
2021/09/08 01:38:04;;;;;;;10.38;5.97;;;15.40;87.40;;;;;;5115982;28;20020;-48
2021/09/08 01:40:30;;;;;;;14.40;6.18;;;15.40;87.40;;;;;;5115682;28;20360;-50
2021/09/08 01:42:57;;;;;;;10.68;6.22;;;15.30;87.50;;;;;;5115830;28;20436;-49
2021/09/08 01:45:24;;;;;;;8.15;5.75;;;14.90;88.80;;;;;;5115714;28;20031;-51
2021/09/08 01:47:56;;;;;;;14.52;6.90;;;14.60;90.50;;;;;;5079941;28;20039;-50
2021/09/08 01:50:22;;;;;;;;;;;14.40;91.30;;;;;;5115779;28;20019;-49
2021/09/08 01:52:48;;;;;;;8.52;6.20;;;14.30;91.30;;;;;;5115783;28;19924;-51
2021/09/08 01:55:14;;;;;;;8.77;5.90;;;14.30;91.20;;;;;;5115606;28;20041;-51
2021/09/08 01:57:40;;;;;;;7.80;6.38;;;14.20;91.50;;;;;;5115477;28;20491;-51
2021/09/08 02:00:07;;;;;;;9.43;7.80;;;14.00;92.00;;;;;;5079246;28;20042;-49
2021/09/08 02:02:34;;;;;;;12.73;6.43;;;13.90;92.00;;;;;;5029754;28;20035;-49
2021/09/08 02:04:59;;;;;;;11.48;6.82;;;13.70;92.50;;;;;;5115262;28;20106;-51
2021/09/08 02:07:26;;;;;;;11.65;6.40;;;13.60;93.00;;;;;;5079380;28;20070;-48
2021/09/08 02:09:52;;;;;;;10.93;7.13;;;13.70;92.70;;;;;;5115020;28;20118;-49
2021/09/08 02:12:18;;;;;;;13.80;6.88;;;13.70;92.90;;;;;;5114958;28;20105;-51
2021/09/08 02:14:44;;;;;;;10.73;6.03;;;13.70;92.90;;;;;;5114901;28;20031;-48
2021/09/08 02:17:10;;;;;;;9.60;7.35;;;13.80;92.40;;;;;;5114930;28;20031;-51
2021/09/08 02:19:35;;;;;;;9.82;6.75;;;14.00;92.00;;;;;;5114899;28;20027;-49
2021/09/08 02:22:02;;;;;;;14.05;6.78;;;13.90;92.00;;;;;;5114829;28;20531;-49
2021/09/08 02:24:27;;;;;;;14.13;6.70;;;14.00;91.80;;;;;;5079351;28;20036;-51
2021/09/08 02:26:53;;;;;;;11.63;7.38;;;14.10;91.60;;;;;;5114915;28;20030;-49
2021/09/08 02:29:19;;;;;;;7.97;6.45;;;14.10;91.40;;;;;;5096477;28;20505;-49
2021/09/08 02:31:45;;;;;;;12.00;6.90;;;13.80;91.80;;;;;;5114552;28;20035;-48
2021/09/08 02:34:10;;;;;;;11.07;6.07;;;13.80;92.00;;;;;;5114501;28;20420;-49
2021/09/08 02:36:36;;;;;;;9.02;6.28;;;13.80;91.90;;;;;;5114641;28;20027;-51
2021/09/08 02:39:03;;;;;;;12.50;6.65;;;13.80;91.90;;;;;;5114622;28;20068;-51
2021/09/08 02:41:29;;;;;;;8.40;6.10;;;13.60;91.90;;;;;;5114559;28;20020;-51
2021/09/08 02:43:54;;;;;;;12.82;6.13;;;13.50;92.30;;;;;;5114409;28;20576;-49
2021/09/08 02:46:20;;;;;;;11.32;6.85;;;13.30;92.90;;;;;;5078886;28;20040;-53
2021/09/08 02:48:46;;;;;;;9.43;6.45;;;13.20;92.80;;;;;;5114242;28;20035;-50
2021/09/08 02:51:12;;;;;;;10.40;6.20;;;13.20;93.10;;;;;;5095964;28;20497;-52
2021/09/08 02:53:38;;;;;;;9.65;7.40;;;13.10;93.20;;;;;;5078757;28;20036;-50
2021/09/08 02:56:04;;;;;;;8.57;6.32;;;13.20;93.40;;;;;;5114392;28;20031;-52
2021/09/08 02:58:30;;;;;;;12.18;6.22;;;13.30;92.90;;;;;;5114471;28;20028;-50
2021/09/08 03:00:57;;;;;;;12.55;6.30;;;13.30;93.00;;;;;;5114096;28;20070;-50
2021/09/08 03:03:23;;;;;;;13.93;6.15;;;13.20;93.20;;;;;;5114090;28;20034;-50
2021/09/08 03:05:52;;;;;;;11.07;6.10;;;13.10;93.10;;;;;;5114378;28;20474;-50
2021/09/08 03:08:18;;;;;;;10.00;6.05;;;13.30;93.20;;;;;;5114020;28;20035;-51
2021/09/08 03:10:45;;;;;;;10.40;6.72;;;13.30;93.10;;;;;;5113938;28;20027;-50
2021/09/08 03:13:15;;;;;;;9.43;6.53;;;13.40;92.70;;;;;;5114137;28;20076;-52
2021/09/08 03:15:41;;;;;;;10.13;6.07;;;13.30;92.50;;;;;;5113790;28;20506;-52
2021/09/08 03:18:07;;;;;;;14.30;6.60;;;13.10;93.00;;;;;;5078790;28;20035;-52
2021/09/08 03:20:33;;;;;;;8.73;6.20;;;13.00;93.30;;;;;;5114082;28;20030;-53
2021/09/08 03:23:00;;;;;;;10.68;6.25;;;13.00;93.40;;;;;;5114003;28;20028;-50
2021/09/08 03:25:26;;;;;;;10.27;5.47;;;13.10;93.30;;;;;;5114003;28;20034;-50
2021/09/08 03:27:52;;;;;;;12.32;6.38;;;13.10;93.30;;;;;;5113681;28;20418;-50
2021/09/08 03:30:18;;;;;;;11.48;6.45;;;13.20;92.90;;;;;;5113801;28;20024;-51
2021/09/08 03:32:44;;;;;;;12.05;6.10;;;13.00;93.00;;;;;;5071293;28;20036;-51
2021/09/08 03:35:10;;;;;;;10.40;6.40;;;12.90;93.30;;;;;;5021490;28;20036;-51
2021/09/08 03:37:36;;;;;;;12.55;5.65;;;12.90;93.50;;;;;;5021509;28;20060;-52
2021/09/08 03:40:02;;;;;;;8.95;5.90;;;12.90;93.20;;;;;;5071053;28;20402;-50
2021/09/08 03:42:28;;;;;;;9.85;5.90;;;12.60;93.80;;;;;;5071229;28;20111;-52
2021/09/08 03:44:54;;;;;;;10.20;6.30;;;12.40;94.30;;;;;;5071204;28;20358;-51
2021/09/08 03:47:20;;;;;;;9.48;6.43;;;12.30;94.50;;;;;;5037778;28;20033;-51
2021/09/08 03:49:46;;;;;;;12.98;6.03;;;12.00;94.90;;;;;;5071338;28;20024;-50
2021/09/08 03:52:16;;;;;;;10.77;6.43;;;12.00;95.40;;;;;;5070938;28;20044;-51
2021/09/08 03:54:42;;;;;;;10.95;6.32;;;11.90;95.70;;;;;;5071088;28;20032;-52
2021/09/08 03:57:08;;;;;;;9.32;6.13;;;11.80;96.00;;;;;;5070776;28;20182;-51
2021/09/08 04:02:09;;;;;;;10.27;5.97;;;11.40;97.00;;;;;;5190823;22;20088;-50
2021/09/08 04:04:35;;;;;;;12.73;5.47;;;11.20;97.80;;;;;;5073371;28;20017;-49
2021/09/08 04:07:01;;;;;;;9.52;6.22;;;11.20;98.20;;;;;;5073061;28;20391;-50
2021/09/08 04:09:26;;;;;;;8.98;5.43;;;11.10;98.40;;;;;;5038162;28;20041;-50
2021/09/08 04:11:52;;;;;;;10.43;5.65;;;11.10;98.70;;;;;;5073207;28;20451;-51
2021/09/08 04:14:18;;;;;;;12.15;5.60;;;11.10;98.70;;;;;;5073284;28;20017;-48
2021/09/08 04:16:44;;;;;;;9.50;6.15;;;11.20;98.90;;;;;;5054465;28;20033;-50
2021/09/08 04:19:09;;;;;;;11.07;5.95;;;11.30;98.90;;;;;;5072919;28;20029;-50
2021/09/08 04:21:35;;;;;;;9.32;5.78;;;11.50;98.40;;;;;;5072841;28;20052;-51
2021/09/08 04:24:01;;;;;;;9.10;5.03;;;11.50;98.30;;;;;;5073148;28;20029;-51
2021/09/08 04:26:27;;;;;;;11.73;7.15;;;11.50;98.10;;;;;;5072872;28;20435;-49
2021/09/08 04:28:53;;;;;;;11.52;5.13;;;11.40;98.40;;;;;;5076657;28;20101;-49
2021/09/08 04:31:19;;;;;;;8.52;5.88;;;11.40;98.50;;;;;;5076237;28;20020;-50
2021/09/08 04:33:44;;;;;;;11.23;5.28;;;11.30;98.70;;;;;;5076357;28;20074;-49
2021/09/08 04:36:10;;;;;;;6.95;5.40;;;11.30;99.10;;;;;;5076906;28;20025;-50
2021/09/08 04:38:39;;;;;;;10.25;5.70;;;11.30;99.00;;;;;;5076296;28;20020;-51
2021/09/08 04:41:05;;;;;;;10.43;6.10;;;11.60;98.70;;;;;;5076116;28;20027;-49
2021/09/08 04:43:31;;;;;;;11.32;5.43;;;11.70;98.30;;;;;;5076189;28;20020;-49
2021/09/08 04:45:57;;;;;;;12.88;6.10;;;11.90;98.10;;;;;;5076671;28;20031;-50
2021/09/08 04:48:22;;;;;;;13.48;7.05;;;12.10;97.50;;;;;;5076341;28;20447;-49
2021/09/08 04:50:48;;;;;;;10.55;6.00;;;12.20;97.40;;;;;;5075936;28;20024;-49
2021/09/08 04:53:14;;;;;;;10.70;6.65;;;12.30;97.40;;;;;;5041142;28;20060;-48
2021/09/08 04:55:40;;;;;;;14.38;6.40;;;12.40;97.10;;;;;;5076003;28;20028;-49
2021/09/08 04:58:08;;;;;;;13.65;6.25;;;12.30;97.20;;;;;;5075894;28;20020;-49
2021/09/08 05:00:34;;;;;;;10.85;6.60;;;12.50;97.30;;;;;;5075598;28;20111;-51
2021/09/08 05:03:00;;;;;;;8.30;5.82;;;12.70;97.00;;;;;;5076151;28;20048;-50
2021/09/08 05:05:25;;;;;;;7.35;5.53;;;12.70;96.70;;;;;;5041524;28;20024;-50
2021/09/08 05:07:51;;;;;;;8.57;5.57;;;12.50;96.90;;;;;;5041026;28;20395;-50
2021/09/08 05:10:17;;;;;;;8.63;4.97;;;12.50;97.20;;;;;;5075910;28;20031;-51
2021/09/08 05:12:43;;;;;;;11.48;5.50;;;12.30;97.90;;;;;;5075988;28;20379;-49
2021/09/08 05:15:09;;;;;;;8.60;4.80;;;12.30;98.70;;;;;;5075818;28;20594;-49
2021/09/08 05:17:35;;;;;;;10.18;5.70;;;12.30;98.70;;;;;;4991876;28;20052;-50
2021/09/08 05:20:03;;;;;;;9.13;5.50;;;12.40;99.30;;;;;;5075705;28;20066;-50
2021/09/08 05:22:29;;;;;;;9.65;6.00;;;12.50;99.30;;;;;;5040584;28;20475;-49
2021/09/08 05:24:54;;;;;;;8.75;5.18;;;12.70;99.10;;;;;;5075808;28;20025;-50
2021/09/08 05:27:21;;;;;;;8.57;5.45;;;13.00;98.50;;;;;;5075898;28;20052;-52
2021/09/08 05:29:46;;;;;;;8.50;5.85;;;13.30;98.30;;;;;;5075637;28;20024;-49
2021/09/08 05:32:12;;;;;;;8.77;5.70;;;13.40;97.70;;;;;;5023511;28;20093;-48
2021/09/08 05:34:38;;;;;;;9.25;5.50;;;13.60;98.00;;;;;;5075556;28;20028;-48
2021/09/08 05:37:04;;;;;;;9.48;5.72;;;13.80;97.30;;;;;;5075168;28;20045;-50
2021/09/08 05:39:30;;;;;;;11.32;5.65;;;14.10;96.80;;;;;;5074811;28;20029;-51
2021/09/08 05:41:55;;;;;;;10.00;5.97;;;14.20;96.40;;;;;;5075065;28;20056;-49
2021/09/08 05:44:21;;;;;;;10.50;5.90;;;14.30;96.30;;;;;;5040228;28;20032;-49
2021/09/08 05:46:47;;;;;;;10.25;5.57;;;14.20;95.90;;;;;;5075203;28;20025;-51
2021/09/08 05:49:14;;;;;;;11.30;4.75;;;14.30;95.80;;;;;;5074888;28;20499;-49
2021/09/08 05:51:40;;;;;;;8.20;5.25;;;14.50;95.50;;;;;;5074790;28;20068;-49
2021/09/08 05:54:06;;;;;;;8.88;5.43;;;14.60;95.40;;;;;;5074818;28;20075;-51
2021/09/08 05:56:33;;;;;;;10.52;5.45;;;14.80;95.20;;;;;;5074813;28;20025;-49
2021/09/08 05:58:59;;;;;;;13.35;5.15;;;15.10;94.90;;;;;;5075378;28;20391;-51
2021/09/08 06:01:25;;;;;;;7.35;4.57;;;15.20;94.50;;;;;;5074484;28;20045;-51
2021/09/08 06:03:51;;;;;;;8.18;4.85;;;15.40;93.40;;;;;;5075008;28;20096;-49
2021/09/08 06:06:16;;;;;;;9.43;4.55;;;15.30;92.60;;;;;;5074927;28;20016;-51
2021/09/08 06:08:42;;;;;;;5.53;3.78;;;15.40;92.70;;;;;;5074782;28;20031;-50
2021/09/08 06:11:09;;;;;;;16.67;4.88;;;15.40;92.50;;;;;;5039469;28;20357;-49
2021/09/08 06:13:34;;;;;;;8.02;4.07;;;15.60;92.40;;;;;;5074736;28;20020;-50
2021/09/08 06:16:00;;;;;;;7.63;4.10;;;15.80;92.20;;;;;;5039430;28;20120;-50
2021/09/08 06:18:26;;;;;;;7.68;3.50;;;16.00;91.30;;;;;;5074693;28;20025;-51
2021/09/08 06:20:52;;;;;;;6.47;4.20;;;16.00;91.20;;;;;;5074256;28;20464;-50
2021/09/08 06:23:18;;;;;;;11.35;4.47;;;16.20;91.40;;;;;;5073674;28;20078;-49
2021/09/08 06:25:43;;;;;;;10.35;4.70;;;16.40;91.00;;;;;;5073843;28;20417;-50
2021/09/08 06:28:09;;;;;;;6.57;3.38;;;16.60;90.80;;;;;;5038395;28;20097;-49
2021/09/08 06:30:35;;;;;;;8.23;3.53;;;16.80;90.10;;;;;;5073728;28;20027;-49
2021/09/08 06:33:01;;;;;;;6.18;3.63;;;17.10;89.10;;;;;;5038521;28;20032;-50
2021/09/08 06:35:27;;;;;;;10.48;3.60;;;17.50;88.70;;;;;;5055052;28;20037;-49
2021/09/08 06:37:52;;;;;;;7.45;2.97;;;17.60;87.40;;;;;;5038348;28;20032;-51
2021/09/08 06:40:18;;;;;;;8.43;2.67;;;17.80;86.10;;;;;;5073594;28;20036;-49
2021/09/08 06:42:44;;;;;;;7.28;2.97;;;17.90;85.80;;;;;;5072939;28;20020;-49
2021/09/08 06:45:10;;;;;;;6.10;3.08;;;17.90;85.30;;;;;;5034765;28;20036;-50
2021/09/08 06:47:36;;;;;;;12.00;3.30;;;18.10;84.90;;;;;;5068067;28;20074;-51
2021/09/08 06:50:03;;;;;;;5.72;3.15;;;18.10;84.30;;;;;;5063329;28;20020;-49
2021/09/08 06:52:29;;;;;;;7.10;3.50;;;18.20;83.80;;;;;;5063382;28;20445;-50
2021/09/08 06:54:54;;;;;;;4.70;2.70;;;18.30;84.20;;;;;;5003230;28;20075;-52
2021/09/08 06:57:20;;;;;;;8.60;3.17;;;18.30;83.10;;;;;;5064046;28;20035;-50
2021/09/08 06:59:46;;;;;;;4.40;2.50;;;18.50;83.40;;;;;;5063667;28;20016;-52
2021/09/08 07:02:12;;;;;;;7.32;3.10;;;18.50;82.30;;;;;;5034810;28;20044;-51
2021/09/08 07:04:39;;;;;;;6.80;3.60;;;18.80;82.80;;;;;;5067917;28;20050;-52
2021/09/08 07:07:05;;;;;;;9.95;3.30;;;19.10;83.00;;;;;;5069557;28;20051;-49
2021/09/08 07:09:31;;;;;;;5.10;3.00;;;19.40;82.70;;;;;;5073241;28;20123;-49
2021/09/08 07:24:19;;;;;;;5.80;2.88;;;19.70;80.20;;;;;;5148585;27;20403;-50
2021/09/08 07:26:45;;;;;;;9.68;2.95;;;21.00;76.60;;;;;;5130794;27;20046;-47
2021/09/08 07:29:12;;;;;;;4.57;2.55;;;21.10;75.70;;;;;;5130402;27;20039;-47
2021/09/08 07:31:37;;;;;;;4.20;1.90;;;21.00;75.30;;;;;;5149375;27;20512;-50
2021/09/08 07:34:03;;;;;;;5.45;2.75;;;21.00;75.20;;;;;;5150870;27;20027;-49
2021/09/08 07:36:29;;;;;;;5.80;2.47;;;21.30;75.60;;;;;;5129586;27;20036;-49
2021/09/08 07:38:55;;;;;;;6.75;2.35;;;21.10;74.70;;;;;;5147086;27;20015;-50
2021/09/08 07:41:23;;;;;;;5.32;2.85;;;21.20;75.30;;;;;;5151522;27;20074;-48
2021/09/08 07:43:49;;;;;;;5.35;2.53;;;21.40;75.70;;;;;;5151685;27;20473;-51
2021/09/08 07:46:15;;;;;;;4.45;2.63;;;21.80;74.70;;;;;;5114237;27;20176;-49
2021/09/08 07:48:41;;;;;;;6.90;2.75;;;21.60;74.30;;;;;;5132440;27;20035;-49
2021/09/08 07:51:07;;;;;;;8.88;3.10;;;21.70;74.30;;;;;;5149672;27;20424;-49
2021/09/08 07:53:34;;;;;;;3.63;2.38;;;22.20;74.70;;;;;;5151386;27;20175;-50
2021/09/08 07:56:00;;;;;;;7.53;3.25;;;22.30;73.50;;;;;;5145955;27;20016;-50
2021/09/08 07:58:26;;;;;;;5.90;2.95;;;22.40;73.10;;;;;;5150419;27;20031;-50
2021/09/08 08:00:52;;;;;;;6.45;2.50;;;22.70;72.30;;;;;;5106601;28;20042;-50
2021/09/08 08:03:21;;;;;;;8.35;2.70;;;22.80;71.80;;;;;;5129472;28;20032;-51
2021/09/08 08:05:47;;;;;;;9.75;3.75;;;22.70;71.60;;;;;;5131035;27;20063;-48
2021/09/08 08:08:13;;;;;;;4.70;2.78;;;22.80;71.50;;;;;;5131203;28;20043;-49
2021/09/08 08:10:39;;;;;;;7.15;2.83;;;23.00;72.30;;;;;;5131299;27;20478;-47
2021/09/08 08:13:05;;;;;;;6.47;2.88;;;23.50;70.90;;;;;;5132832;27;20041;-48
2021/09/08 08:15:31;;;;;;;7.03;2.95;;;23.60;69.40;;;;;;5151809;27;20419;-51
2021/09/08 08:17:57;;;;;;;5.05;2.40;;;23.60;70.10;;;;;;5133268;27;20526;-50
2021/09/08 08:20:22;;;;;;;11.23;2.95;;;23.60;69.50;;;;;;5115338;27;20347;-49
2021/09/08 08:22:49;;;;;;;4.30;2.22;;;23.70;70.00;;;;;;5150562;27;20100;-48
2021/09/08 08:25:17;;;;;;;5.47;2.50;;;23.70;68.70;;;;;;5117123;28;20020;-49
2021/09/08 08:27:43;;;;;;;5.22;2.47;;;24.00;69.20;;;;;;5117473;28;20020;-49
2021/09/08 08:30:11;;;;;;;5.57;2.40;;;24.30;68.60;;;;;;5116978;28;20028;-52
2021/09/08 08:32:37;;;;;;;8.02;2.78;;;24.50;67.30;;;;;;5064657;28;20394;-51
2021/09/08 08:35:04;;;;;;;7.88;2.42;;;24.40;67.80;;;;;;5116784;28;20022;-50
2021/09/08 08:37:30;;;;;;;4.78;2.33;;;24.60;67.10;;;;;;5071483;28;20039;-51
2021/09/08 08:39:56;;;;;;;6.32;2.88;;;24.50;66.30;;;;;;5117178;28;20443;-48
2021/09/08 08:42:26;;;;;;;8.38;2.35;;;24.60;67.70;;;;;;5116818;28;20055;-49
2021/09/08 08:44:52;;;;;;;5.15;2.30;;;25.10;67.30;;;;;;5115160;28;20024;-51
2021/09/08 08:47:18;;;;;;;4.07;2.55;;;25.10;65.90;;;;;;5113264;28;20039;-52
2021/09/08 08:49:45;;;;;;;5.10;2.40;;;24.90;65.30;;;;;;5115258;28;20032;-50
2021/09/08 08:52:12;;;;;;;10.93;2.50;;;25.10;65.10;;;;;;5112929;28;20079;-51
2021/09/08 08:54:38;;;;;;;3.05;1.63;;;25.10;64.50;;;;;;5115084;28;20051;-49
2021/09/08 08:57:11;;;;;;;7.90;2.20;;;24.80;64.70;;;;;;5114946;28;20579;-49
2021/09/08 08:59:38;;;;;;;9.98;2.28;;;24.70;64.10;;;;;;5115032;28;20069;-51
2021/09/08 09:02:29;;;;;;;6.57;1.75;;;25.30;63.90;;;;;;5114967;28;20034;-51
2021/09/08 09:04:57;;;;;;;5.27;2.30;;;25.40;62.60;;;;;;5114956;28;20035;-49
2021/09/08 09:07:27;;;;;;;6.55;2.10;;;25.70;63.00;;;;;;5115014;27;20031;-52
2021/09/08 09:09:56;;;;;;;3.65;1.20;;;26.00;62.70;;;;;;5112632;28;20043;-50
2021/09/08 09:12:27;;;;;;;2.80;1.77;;;25.60;61.60;;;;;;5114731;28;20031;-52
2021/09/08 09:14:58;;;;;;;3.15;1.90;;;25.70;62.10;;;;;;5095963;28;20036;-51
2021/09/08 09:17:29;;;;;;;5.97;2.20;;;26.00;61.70;;;;;;5115245;28;20036;-50
2021/09/08 09:19:55;;;;;;;5.40;2.58;;;26.30;61.00;;;;;;5115129;28;20030;-50
2021/09/08 09:22:33;;;;;;;5.80;1.80;;;26.20;61.00;;;;;;5114534;28;20115;-52
2021/09/08 09:24:59;;;;;;;6.82;2.13;;;26.20;60.00;;;;;;5114768;28;20031;-50
2021/09/08 09:27:26;;;;;;;3.25;1.88;;;26.50;60.20;;;;;;5114129;28;20599;-51
2021/09/08 09:29:52;;;;;;;2.13;1.40;;;26.40;60.10;;;;;;5124366;27;20027;-51
2021/09/08 09:32:18;;;;;;;8.13;2.17;;;26.10;59.40;;;;;;5105337;27;20039;-50
2021/09/08 09:34:43;;;;;;;3.53;1.25;;;26.60;59.80;;;;;;5133729;27;20462;-50
2021/09/08 09:37:09;;;;;;;6.70;2.05;;;26.10;59.10;;;;;;5133204;27;20238;-50
2021/09/08 09:39:38;;;;;;;5.03;2.00;;;26.20;59.40;;;;;;5134837;27;20477;-48
2021/09/08 09:42:12;;;;;;;3.42;1.90;;;26.60;59.10;;;;;;5134777;27;20562;-49
2021/09/08 09:44:40;;;;;;;7.35;2.20;;;26.80;59.20;;;;;;5134673;27;20579;-51
2021/09/08 09:47:06;;;;;;;8.27;1.90;;;26.20;58.80;;;;;;5128882;27;20020;-49
2021/09/08 10:02:30;;;;;;;6.60;2.30;;;26.90;79.50;;;;;;5149287;27;20367;-49
2021/09/08 10:04:56;;;;;;;3.00;1.52;;;26.70;58.50;;;;;;5150067;27;20495;-52
2021/09/08 10:07:23;;;;;;;2.50;1.65;;;;;;;;;;5063944;27;20043;-49
2021/09/08 10:09:58;;;;;;;6.97;2.78;;;25.60;58.30;;;;;;5150933;27;20027;-50
2021/09/08 10:12:35;;;;;;;5.47;2.55;;;26.10;59.40;;;;;;5114791;27;20031;-51
2021/09/08 10:15:02;;;;;;;4.95;2.30;;;26.10;59.30;;;;;;5151252;27;20431;-49
2021/09/08 10:17:38;;;;;;;7.00;2.40;;;26.40;60.00;;;;;;5151200;27;20027;-51
2021/09/08 10:20:08;;;;;;;7.22;2.30;;;27.00;60.00;;;;;;5142533;27;20470;-50
2021/09/08 10:22:44;;;;;;;6.70;2.10;;;26.80;59.00;;;;;;5138939;27;20015;-50
2021/09/08 10:25:13;;;;;;;3.42;1.77;;;27.10;62.00;;;;;;5141422;27;20020;-49
2021/09/08 10:27:40;;;;;;;9.43;1.90;;;26.60;58.50;;;;;;5111298;27;20038;-50
2021/09/08 10:30:07;;;;;;;5.45;2.00;;;26.80;57.80;;;;;;5138308;27;20482;-49
2021/09/08 10:32:34;;;;;;;2.75;1.67;;;26.90;58.10;;;;;;5120702;27;20043;-49
2021/09/08 10:35:14;;;;;;;3.95;1.83;;;26.70;58.50;;;;;;5141685;27;20458;-49
2021/09/08 10:37:47;;;;;;;6.28;2.00;;;27.10;58.30;;;;;;5150965;27;20042;-49
2021/09/08 10:40:14;;;;;;;5.15;1.90;;;27.00;58.50;;;;;;5150634;27;20019;-50
2021/09/08 10:42:50;;;;;;;6.82;2.22;;;27.30;58.10;;;;;;5143537;27;20023;-51
2021/09/08 10:45:20;;;;;;;7.50;2.20;;;27.10;65.10;;;;;;5129801;27;20027;-50
2021/09/08 10:47:47;;;;;;;3.55;2.50;;;27.30;59.30;;;;;;5130835;27;20027;-51
2021/09/08 10:50:13;;;;;;;5.00;1.95;;;;;;;;;;5144424;27;20038;-50
2021/09/08 10:52:42;;;;;;;8.52;2.50;;;27.60;82.50;;;;;;5150255;27;20027;-49
2021/09/08 10:55:08;;;;;;;7.18;2.75;;;27.70;82.00;;;;;;5150388;27;20027;-50
2021/09/08 10:57:43;;;;;;;2.60;1.92;;;;;;;;;;5150158;27;20362;-50
2021/09/08 11:00:18;;;;;;;10.38;2.22;;;27.80;57.50;;;;;;5150427;27;20027;-48
2021/09/08 11:02:44;;;;;;;7.10;2.13;;;27.70;57.70;;;;;;5140988;27;20028;-52
2021/09/08 11:05:12;;;;;;;4.30;2.10;;;27.50;57.70;;;;;;5136495;27;20027;-50
2021/09/08 11:07:38;;;;;;;6.00;2.40;;;;;;;;;;5100074;27;20642;-49
2021/09/08 11:10:05;;;;;;;6.53;2.22;;;27.90;57.40;;;;;;5135974;27;20474;-49
2021/09/08 11:12:56;;;;;;;2.55;1.70;;;28.10;70.90;;;;;;5136328;27;20059;-48
2021/09/08 11:15:35;;;;;;;5.13;2.47;;;27.60;76.50;;;;;;5136123;27;20025;-49
2021/09/08 11:18:04;;;;;;;5.82;2.20;;;27.90;78.70;;;;;;5136081;27;20047;-49
2021/09/08 11:20:30;;;;;;;5.40;2.30;;;;;;;;;;5136287;27;20538;-50
2021/09/08 11:22:59;;;;;;;8.48;2.70;;;27.70;93.10;;;;;;5136262;27;20027;-50
2021/09/08 11:25:29;;;;;;;9.30;2.40;;;;;;;;;;5099561;27;20027;-50
2021/09/08 11:27:55;;;;;;;9.82;3.30;;;28.30;56.50;;;;;;5135851;27;20039;-50
2021/09/08 11:30:20;;;;;;;6.82;3.38;;;28.10;56.90;;;;;;5135899;27;20042;-49
2021/09/08 11:32:56;;;;;;;7.18;2.42;;;27.80;57.10;;;;;;5116433;27;20420;-51
2021/09/08 11:35:55;;;;;;;3.92;1.58;;;27.70;58.30;;;;;;5135633;27;20027;-50
2021/09/08 11:38:26;;;;;;;6.65;2.30;;;26.60;58.90;;;;;;5035267;28;20045;-50
2021/09/08 11:41:01;;;;;;;4.72;2.67;;;26.70;58.40;;;;;;5052062;28;20106;-49
2021/09/08 11:43:42;;;;;;;6.82;2.15;;;26.40;58.90;;;;;;5051707;28;20041;-49
2021/09/08 11:46:30;;;;;;;5.95;2.72;;;26.40;59.50;;;;;;5047810;28;20372;-52
2021/09/08 11:49:11;;;;;;;5.97;2.72;;;27.10;60.00;;;;;;5025456;28;20124;-50
2021/09/08 11:51:43;;;;;;;6.22;2.45;;;27.20;58.40;;;;;;5033399;28;20041;-51
2021/09/08 11:54:16;;;;;;;3.55;2.30;;;27.20;58.30;;;;;;5033330;28;20473;-52
2021/09/08 11:56:41;;;;;;;7.75;2.38;;;27.70;58.40;;;;;;5033330;28;20022;-52
2021/09/08 11:59:08;;;;;;;10.05;2.30;;;27.50;58.10;;;;;;5033172;28;20087;-49
2021/09/08 12:01:41;;;;;;;6.25;2.20;;;27.30;57.80;;;;;;5046010;28;20433;-51
2021/09/08 12:04:09;;;;;;;8.52;2.47;;;27.20;58.40;;;;;;5053146;28;20029;-51
2021/09/08 12:07:01;;;;;;;5.85;2.47;;;27.60;58.10;;;;;;5053136;28;20045;-48
2021/09/08 12:09:28;;;;;;;;;;;27.70;57.60;;;;;;5051954;28;20463;-49
2021/09/08 12:12:01;;;;;;;8.52;2.10;;;27.50;57.20;;;;;;5051429;28;19919;-51
2021/09/08 12:14:30;;;;;;;7.78;2.40;;;27.60;57.50;;;;;;5096284;28;20035;-50
2021/09/08 12:16:58;;;;;;;6.15;2.17;;;27.50;57.80;;;;;;5114329;28;20020;-49
2021/09/08 12:19:38;;;;;;;5.65;2.35;;;26.90;57.80;;;;;;5078305;28;20359;-49
2021/09/08 12:22:09;;;;;;;9.55;2.53;;;27.40;58.50;;;;;;5113671;28;20107;-52
2021/09/08 12:24:44;;;;;;;6.88;2.65;;;27.50;58.30;;;;;;5114150;28;20049;-50
2021/09/08 12:27:27;;;;;;;7.55;2.60;;;27.60;59.20;;;;;;5114289;28;20076;-50
2021/09/08 12:29:59;;;;;;;13.50;3.15;;;27.30;58.50;;;;;;5113888;28;20024;-51
2021/09/08 12:33:15;;;;;;;7.20;2.63;;;27.10;59.30;;;;;;5114073;28;20055;-51
2021/09/08 12:35:44;;;;;;;6.80;3.00;;;27.00;58.90;;;;;;5050511;28;20128;-50
2021/09/08 12:38:34;;;;;;;6.75;2.10;;;27.20;58.60;;;;;;5051030;28;20112;-51
2021/09/08 12:41:21;;;;;;;5.65;2.33;;;27.50;58.40;;;;;;5050939;28;20033;-50
2021/09/08 12:43:53;;;;;;;8.13;2.83;;;27.90;57.20;;;;;;5067404;28;20037;-49
2021/09/08 12:46:37;;;;;;;;;;;27.70;56.40;;;;;;5051278;28;20032;-51
2021/09/08 12:49:03;;;;;;;6.15;2.30;;;27.60;63.90;;;;;;5016944;28;19939;-51
2021/09/08 12:51:29;;;;;;;7.57;2.70;;;27.70;56.60;;;;;;5050718;28;20100;-49
2021/09/08 12:53:54;;;;;;;6.07;2.80;;;27.50;56.70;;;;;;5050657;28;20025;-51
2021/09/08 12:56:20;;;;;;;9.90;3.00;;;27.60;57.30;;;;;;5033995;28;20124;-51
2021/09/08 12:58:46;;;;;;;3.58;1.85;;;27.40;57.00;;;;;;5050723;28;20498;-48
2021/09/08 13:01:12;;;;;;;5.25;2.50;;;27.30;56.90;;;;;;5040299;28;20046;-51
2021/09/08 13:03:37;;;;;;;3.75;2.22;;;27.30;57.20;;;;;;5013979;28;20034;-50
2021/09/08 13:06:03;;;;;;;7.68;1.77;;;26.90;57.90;;;;;;5013890;28;20053;-51
2021/09/08 13:08:30;;;;;;;2.67;1.75;;;27.00;57.70;;;;;;5030565;28;20090;-50
2021/09/08 13:10:55;;;;;;;5.07;2.53;;;26.90;57.50;;;;;;5039190;28;20139;-49
2021/09/08 13:13:21;;;;;;;6.05;2.40;;;27.20;57.30;;;;;;5060566;28;20502;-51
2021/09/08 13:15:47;;;;;;;4.78;2.42;;;27.40;57.80;;;;;;5076740;28;20031;-49